createdAt,value
2023-04-15T00:00:19.054Z,98157.99
2023-04-15T00:03:42.321Z,98152.10
2023-04-15T00:06:52.965Z,98159.83
2023-04-15T00:09:57.859Z,98154.77
2023-04-15T00:13:01.935Z,98155.85
2023-04-15T00:16:05.478Z,98159.43
2023-04-15T00:19:08.456Z,98160.16
2023-04-15T00:22:12.222Z,98164.27
2023-04-15T00:25:15.460Z,98164.86
2023-04-15T00:28:18.529Z,98160.27
2023-04-15T00:31:21.900Z,98164.91
2023-04-15T00:34:24.859Z,98170.21
2023-04-15T00:37:27.625Z,98165.13
2023-04-15T00:40:30.786Z,98169.11
2023-04-15T00:43:33.561Z,98170.52
2023-04-15T00:46:38.430Z,98160.48
2023-04-15T00:49:41.513Z,98157.02
2023-04-15T00:52:44.278Z,98160.33
2023-04-15T00:55:47.069Z,98162.14
2023-04-15T00:58:51.501Z,98166.54
2023-04-15T01:01:54.356Z,98158.90
2023-04-15T01:04:57.217Z,98156.41
2023-04-15T01:08:00.329Z,98159.17
2023-04-15T01:11:03.754Z,98161.27
2023-04-15T01:14:07.447Z,98165.53
2023-04-15T01:17:10.309Z,98159.86
2023-04-15T01:20:13.386Z,98159.48
2023-04-15T01:23:17.440Z,98155.77
2023-04-15T01:26:20.405Z,98154.09
2023-04-15T01:29:23.273Z,98160.20
2023-04-15T01:32:27.295Z,98154.15
2023-04-15T01:35:30.147Z,98155.45
2023-04-15T01:38:33.453Z,98152.11
2023-04-15T01:41:36.459Z,98152.73
2023-04-15T01:44:39.173Z,98159.02
2023-04-15T01:47:42.094Z,98157.07
2023-04-15T01:50:46.440Z,98163.09
2023-04-15T01:53:51.053Z,98163.17
2023-04-15T01:56:53.955Z,98167.06
2023-04-15T01:59:56.666Z,98170.10
2023-04-15T02:02:59.742Z,98167.86
2023-04-15T02:06:02.516Z,98166.54
2023-04-15T02:09:05.286Z,98170.20
2023-04-15T02:12:08.056Z,98169.46
2023-04-15T02:15:11.249Z,98168.04
2023-04-15T02:18:14.021Z,98164.56
2023-04-15T02:21:16.895Z,98162.23
2023-04-15T02:24:19.688Z,98165.54
2023-04-15T02:27:22.609Z,98170.35
2023-04-15T02:30:27.186Z,98168.61
2023-04-15T02:33:30.074Z,98170.41
2023-04-15T02:36:34.579Z,98175.16
2023-04-15T02:39:37.997Z,98172.00
2023-04-15T02:42:41.932Z,98167.58
2023-04-15T02:45:47.357Z,98174.19
2023-04-15T02:48:51.022Z,98169.81
2023-04-15T02:51:53.955Z,98168.40
2023-04-15T02:55:00.585Z,98170.86
2023-04-15T02:58:03.407Z,98173.67
2023-04-15T03:01:07.564Z,98174.98
2023-04-15T03:04:10.567Z,98178.06
2023-04-15T03:07:13.378Z,98171.29
2023-04-15T03:10:16.080Z,98176.08
2023-04-15T03:13:19.418Z,98177.14
2023-04-15T03:16:23.049Z,98180.30
2023-04-15T03:19:26.100Z,98182.22
2023-04-15T03:22:28.871Z,98180.84
2023-04-15T03:25:31.756Z,98179.81
2023-04-15T03:28:36.037Z,98180.52
2023-04-15T03:31:38.932Z,98182.50
2023-04-15T03:34:42.308Z,98182.56
2023-04-15T03:37:45.153Z,98180.00
2023-04-15T03:40:47.901Z,98180.90
2023-04-15T03:43:52.150Z,98185.38
2023-04-15T03:46:54.911Z,98184.52
2023-04-15T03:49:57.704Z,98182.52
2023-04-15T03:53:00.751Z,98189.58
2023-04-15T03:56:03.595Z,98189.34
2023-04-15T03:59:06.753Z,98188.63
2023-04-15T04:02:09.505Z,98188.85
2023-04-15T04:05:12.279Z,98188.48
2023-04-15T04:08:16.321Z,98187.94
2023-04-15T04:11:19.092Z,98189.48
2023-04-15T04:14:26.585Z,98189.13
2023-04-15T04:17:29.294Z,98193.30
2023-04-15T04:20:32.167Z,98190.86
2023-04-15T04:23:34.963Z,98191.09
2023-04-15T04:26:37.790Z,98190.64
2023-04-15T04:29:40.524Z,98188.40
2023-04-15T04:32:43.365Z,98189.73
2023-04-15T04:35:46.322Z,98195.63
2023-04-15T04:38:49.144Z,98200.20
2023-04-15T04:41:54.869Z,98200.10
2023-04-15T04:44:57.571Z,98203.47
2023-04-15T04:48:00.644Z,98203.41
2023-04-15T04:51:03.837Z,98204.56
2023-04-15T04:54:06.612Z,98204.67
2023-04-15T04:57:09.363Z,98208.47
2023-04-15T05:00:12.634Z,98199.59
2023-04-15T05:03:15.748Z,98203.65
2023-04-15T05:06:18.600Z,98203.34
2023-04-15T05:09:21.359Z,98212.79
2023-04-15T05:12:24.144Z,98215.25
2023-04-15T05:15:26.915Z,98219.56
2023-04-15T05:18:29.934Z,98222.63
2023-04-15T05:21:32.784Z,98225.73
2023-04-15T05:24:35.607Z,98216.95
2023-04-15T05:27:38.430Z,98213.40
2023-04-15T05:30:41.284Z,98218.94
2023-04-15T05:33:44.170Z,98214.81
2023-04-15T05:36:46.975Z,98219.88
2023-04-15T05:39:49.781Z,98225.81
2023-04-15T05:42:52.535Z,98225.71
2023-04-15T05:45:55.271Z,98231.50
2023-04-15T05:48:58.150Z,98236.16
2023-04-15T05:52:00.966Z,98234.04
2023-04-15T05:55:03.821Z,98235.06
2023-04-15T05:58:06.501Z,98235.21
2023-04-15T06:01:09.354Z,98240.86
2023-04-15T06:04:12.287Z,98241.72
2023-04-15T06:07:15.551Z,98241.73
2023-04-15T06:10:18.346Z,98246.28
2023-04-15T06:13:21.313Z,98247.30
2023-04-15T06:16:24.177Z,98248.83
2023-04-15T06:19:26.931Z,98251.48
2023-04-15T06:22:29.682Z,98255.97
2023-04-15T06:25:32.412Z,98258.45
2023-04-15T06:28:35.342Z,98257.58
2023-04-15T06:31:38.118Z,98265.62
2023-04-15T06:34:40.868Z,98269.40
2023-04-15T06:37:43.567Z,98268.45
2023-04-15T06:40:46.409Z,98264.44
2023-04-15T06:43:49.245Z,98264.44
2023-04-15T06:46:52.079Z,98265.64
2023-04-15T06:49:54.914Z,98267.39
2023-04-15T06:52:57.706Z,98269.85
2023-04-15T06:56:00.601Z,98269.52
2023-04-15T06:59:03.747Z,98275.32
2023-04-15T07:02:12.425Z,98275.20
2023-04-15T07:05:15.629Z,98278.40
2023-04-15T07:08:19.954Z,98281.42
2023-04-15T07:11:22.739Z,98286.81
2023-04-15T07:14:25.557Z,98286.85
2023-04-15T07:17:28.292Z,98284.09
2023-04-15T07:20:31.162Z,98282.91
2023-04-15T07:23:33.922Z,98290.26
2023-04-15T07:26:36.632Z,98293.52
2023-04-15T07:29:39.374Z,98294.27
2023-04-15T07:32:42.581Z,98293.05
2023-04-15T07:35:46.124Z,98294.50
2023-04-15T07:38:49.072Z,98300.98
2023-04-15T07:41:51.891Z,98301.13
2023-04-15T07:44:54.771Z,98300.09
2023-04-15T07:47:57.969Z,98294.23
2023-04-15T07:51:00.892Z,98294.02
2023-04-15T07:54:04.257Z,98299.21
2023-04-15T07:57:07.959Z,98298.48
2023-04-15T08:00:11.480Z,98299.80
2023-04-15T08:03:17.392Z,98298.09
2023-04-15T08:06:20.129Z,98299.05
2023-04-15T08:13:13.049Z,98301.06
2023-04-15T08:16:21.666Z,98300.68
2023-04-15T08:22:53.798Z,98306.28
2023-04-15T08:25:57.270Z,98301.01
2023-04-15T08:29:00.212Z,98305.13
2023-04-15T08:32:03.391Z,98308.46
2023-04-15T08:35:06.600Z,98314.23
2023-04-15T08:38:09.367Z,98311.37
2023-04-15T08:41:17.584Z,98308.25
2023-04-15T08:44:21.710Z,98305.82
2023-04-15T08:47:29.918Z,98304.98
2023-04-15T08:50:33.202Z,98309.36
2023-04-15T08:53:36.173Z,98306.97
2023-04-15T08:56:39.418Z,98311.55
2023-04-15T08:59:43.579Z,98310.90
2023-04-15T09:02:46.840Z,98312.02
2023-04-15T09:05:51.456Z,98311.60
2023-04-15T09:08:56.272Z,98312.23
2023-04-15T09:11:59.211Z,98310.58
2023-04-15T09:15:03.238Z,98309.48
2023-04-15T09:18:07.036Z,98310.63
2023-04-15T09:21:11.488Z,98302.16
2023-04-15T09:24:14.523Z,98300.95
2023-04-15T09:27:17.404Z,98300.60
2023-04-15T09:30:21.443Z,98300.84
2023-04-15T09:33:26.253Z,98306.49
2023-04-15T09:36:31.733Z,98297.08
2023-04-15T09:39:48.663Z,98304.79
2023-04-15T09:42:57.998Z,98304.09
2023-04-15T09:46:00.797Z,98308.97
2023-04-15T09:49:11.344Z,98310.73
2023-04-15T09:52:14.443Z,98313.70
2023-04-15T09:55:18.301Z,98313.55
2023-04-15T09:58:23.591Z,98314.61
2023-04-15T10:01:27.069Z,98320.39
2023-04-15T10:04:31.161Z,98328.64
2023-04-15T10:07:35.214Z,98328.35
2023-04-15T10:10:37.989Z,98333.52
2023-04-15T10:13:41.679Z,98339.29
2023-04-15T10:16:49.126Z,98333.84
2023-04-15T10:19:54.297Z,98336.58
2023-04-15T10:22:57.864Z,98334.96
2023-04-15T10:26:02.306Z,98338.61
2023-04-15T10:29:05.649Z,98337.38
2023-04-15T10:32:09.654Z,98342.11
2023-04-15T10:35:13.229Z,98345.98
2023-04-15T10:38:33.733Z,98349.66
2023-04-15T10:41:37.850Z,98349.92
2023-04-15T10:44:44.009Z,98344.50
2023-04-15T10:47:49.671Z,98346.14
2023-04-15T10:51:02.683Z,98342.35
2023-04-15T10:54:10.520Z,98342.95
2023-04-15T10:57:24.184Z,98343.62
2023-04-15T11:00:30.070Z,98344.63
2023-04-15T11:03:42.668Z,98346.09
2023-04-15T11:06:45.935Z,98343.40
2023-04-15T11:09:48.668Z,98344.80
2023-04-15T11:12:58.502Z,98346.02
2023-04-15T11:16:02.615Z,98348.73
2023-04-15T11:19:05.961Z,98347.73
2023-04-15T11:22:10.288Z,98348.55
2023-04-15T11:25:23.229Z,98348.58
2023-04-15T11:28:29.379Z,98348.69
2023-04-15T11:31:33.418Z,98350.95
2023-04-15T11:34:36.408Z,98349.84
2023-04-15T11:37:39.356Z,98352.02
2023-04-15T11:40:45.264Z,98348.25
2023-04-15T11:43:50.737Z,98353.23
2023-04-15T11:46:55.428Z,98359.60
2023-04-15T11:50:23.068Z,98358.63
2023-04-15T11:53:37.212Z,98356.85
2023-04-15T11:56:40.097Z,98358.51
2023-04-15T11:59:45.832Z,98358.89
2023-04-15T12:02:49.173Z,98366.27
2023-04-15T12:06:16.757Z,98364.23
2023-04-15T12:09:21.715Z,98365.81
2023-04-15T12:12:30.961Z,98367.60
2023-04-15T12:15:33.765Z,98373.12
2023-04-15T12:18:38.695Z,98374.67
2023-04-15T12:21:45.480Z,98375.55
2023-04-15T12:24:54.243Z,98377.88
2023-04-15T12:27:57.053Z,98377.08
2023-04-15T12:30:59.866Z,98382.39
2023-04-15T12:34:04.453Z,98380.77
2023-04-15T12:37:09.930Z,98381.61
2023-04-15T12:40:13.772Z,98380.91
2023-04-15T12:43:16.860Z,98382.92
2023-04-15T12:46:20.318Z,98383.95
2023-04-15T12:49:24.596Z,98388.05
2023-04-15T12:52:27.470Z,98386.55
2023-04-15T12:55:30.689Z,98390.05
2023-04-15T12:58:33.534Z,98394.09
2023-04-15T13:01:36.399Z,98395.02
2023-04-15T13:04:39.281Z,98403.27
2023-04-15T13:07:42.510Z,98411.27
2023-04-15T13:10:45.457Z,98416.68
2023-04-15T13:13:48.599Z,98418.63
2023-04-15T13:16:51.306Z,98421.16
2023-04-15T13:19:54.359Z,98426.09
2023-04-15T13:22:57.335Z,98435.86
2023-04-15T13:26:00.118Z,98435.63
2023-04-15T13:29:02.892Z,98434.81
2023-04-15T13:32:06.527Z,98441.88
2023-04-15T13:35:10.791Z,98444.55
2023-04-15T13:38:13.575Z,98438.39
2023-04-15T13:41:16.406Z,98437.66
2023-04-15T13:44:21.534Z,98436.80
2023-04-15T13:47:25.263Z,98436.91
2023-04-15T13:50:28.628Z,98433.86
2023-04-15T13:53:38.352Z,98429.24
2023-04-15T13:56:42.378Z,98435.46
2023-04-15T13:59:45.446Z,98434.27
2023-04-15T14:02:48.397Z,98439.48
2023-04-15T14:05:55.900Z,98438.87
2023-04-15T14:08:58.633Z,98444.23
2023-04-15T14:12:03.292Z,98448.13
2023-04-15T14:15:06.574Z,98453.55
2023-04-15T14:18:09.477Z,98455.60
2023-04-15T14:21:12.610Z,98459.48
2023-04-15T14:24:15.917Z,98461.65
2023-04-15T14:27:21.153Z,98464.89
2023-04-15T14:30:23.905Z,98466.55
2023-04-15T14:33:28.188Z,98466.26
2023-04-15T14:36:32.040Z,98465.48
2023-04-15T14:39:35.578Z,98463.02
2023-04-15T14:42:38.352Z,98457.60
2023-04-15T14:45:43.713Z,98462.11
2023-04-15T14:48:48.221Z,98465.77
2023-04-15T14:51:51.411Z,98467.15
2023-04-15T14:54:56.836Z,98464.29
2023-04-15T14:58:00.241Z,98462.70
2023-04-15T15:01:03.926Z,98463.48
2023-04-15T15:04:07.048Z,98467.84
2023-04-15T15:07:10.122Z,98469.04
2023-04-15T15:10:15.560Z,98474.98
2023-04-15T15:13:19.587Z,98483.61
2023-04-15T15:16:22.445Z,98488.07
2023-04-15T15:19:28.482Z,98490.09
2023-04-15T15:22:31.244Z,98496.17
2023-04-15T15:25:34.017Z,98500.92
2023-04-15T15:28:37.425Z,98505.77
2023-04-15T15:31:40.585Z,98512.20
2023-04-15T15:34:43.376Z,98519.53
2023-04-15T15:37:46.283Z,98520.05
2023-04-15T15:40:48.994Z,98512.95
2023-04-15T15:43:53.076Z,98510.86
2023-04-15T15:46:56.181Z,98513.16
2023-04-15T15:50:00.672Z,98509.91
2023-04-15T15:53:03.454Z,98503.85
2023-04-15T15:56:06.694Z,98510.63
2023-04-15T15:59:11.773Z,98511.64
2023-04-15T16:02:14.627Z,98512.34
2023-04-15T16:05:18.156Z,98517.99
2023-04-15T16:08:21.064Z,98524.02
2023-04-15T16:11:24.071Z,98528.39
2023-04-15T16:14:27.041Z,98529.36
2023-04-15T16:17:29.801Z,98526.64
2023-04-15T16:20:32.579Z,98525.00
2023-04-15T16:23:37.245Z,98532.36
2023-04-15T16:26:41.411Z,98542.52
2023-04-15T16:29:48.089Z,98544.40
2023-04-15T16:32:51.626Z,98548.63
2023-04-15T16:35:54.368Z,98544.11
2023-04-15T16:38:57.125Z,98544.02
2023-04-15T16:42:00.434Z,98549.23
2023-04-15T16:45:03.503Z,98555.77
2023-04-15T16:48:06.894Z,98560.04
2023-04-15T16:51:09.949Z,98568.55
2023-04-15T16:54:13.008Z,98572.91
2023-04-15T16:57:15.887Z,98572.46
2023-04-15T17:00:18.648Z,98576.23
2023-04-15T17:03:21.576Z,98574.43
2023-04-15T17:06:25.330Z,98580.59
2023-04-15T17:09:28.570Z,98585.38
2023-04-15T17:12:31.794Z,98585.73
2023-04-15T17:15:34.574Z,98586.48
2023-04-15T17:18:38.871Z,98585.47
2023-04-15T17:21:45.351Z,98586.62
2023-04-15T17:24:49.076Z,98592.17
2023-04-15T17:27:52.378Z,98595.72
2023-04-15T17:30:55.792Z,98605.33
2023-04-15T17:34:06.410Z,98615.21
2023-04-15T17:37:12.939Z,98621.42
2023-04-15T17:40:16.087Z,98635.10
2023-04-15T17:43:19.371Z,98653.04
2023-04-15T17:46:23.445Z,98650.07
2023-04-15T17:49:38.170Z,98658.64
2023-04-15T17:52:46.465Z,98666.92
2023-04-15T17:55:50.365Z,98672.92
2023-04-15T17:58:54.128Z,98668.92
2023-04-15T18:01:58.632Z,98672.29
2023-04-15T18:05:04.675Z,98669.55
2023-04-15T18:08:08.592Z,98675.20
2023-04-15T18:11:12.534Z,98676.88
2023-04-15T18:14:31.121Z,98673.46
2023-04-15T18:18:02.972Z,98674.16
2023-04-15T18:21:06.914Z,98678.27
2023-04-15T18:24:09.951Z,98680.66
2023-04-15T18:27:12.653Z,98687.90
2023-04-15T18:30:18.392Z,98693.34
2023-04-15T18:33:24.648Z,98697.89
2023-04-15T18:36:27.505Z,98703.31
2023-04-15T18:39:31.158Z,98699.96
2023-04-15T18:42:33.997Z,98700.63
2023-04-15T18:45:37.541Z,98705.31
2023-04-15T18:48:44.897Z,98708.83
2023-04-15T18:51:49.044Z,98710.94
2023-04-15T18:54:52.129Z,98714.45
2023-04-15T18:57:56.866Z,98716.66
2023-04-15T19:01:11.938Z,98721.60
2023-04-15T19:04:16.498Z,98728.45
2023-04-15T19:07:21.230Z,98734.05
2023-04-15T19:10:24.795Z,98733.63
2023-04-15T19:13:35.804Z,98751.03
2023-04-15T19:16:39.066Z,98765.00
2023-04-15T19:19:45.180Z,98766.16
2023-04-15T19:22:48.380Z,98764.69
2023-04-15T19:25:52.039Z,98760.35
2023-04-15T19:28:56.514Z,98763.52
2023-04-15T19:32:01.479Z,98765.52
2023-04-15T19:35:05.416Z,98766.27
2023-04-15T19:38:08.770Z,98771.61
2023-04-15T19:41:14.580Z,98774.17
2023-04-15T19:44:18.038Z,98776.04
2023-04-15T19:47:25.840Z,98782.87
2023-04-15T19:50:32.289Z,98779.15
2023-04-15T19:53:37.497Z,98774.36
2023-04-15T19:56:40.425Z,98775.41
2023-04-15T19:59:44.320Z,98775.80
2023-04-15T20:02:58.541Z,98775.62
2023-04-15T20:06:03.589Z,98774.09
2023-04-15T20:09:11.301Z,98770.70
2023-04-15T20:12:50.811Z,98770.35
2023-04-15T20:15:43.031Z,98769.99
2023-04-15T20:18:47.189Z,98773.25
2023-04-15T20:21:52.062Z,98775.25
2023-04-15T20:24:56.151Z,98779.29
2023-04-15T20:28:00.953Z,98776.73
2023-04-15T20:31:04.034Z,98777.62
2023-04-15T20:34:16.386Z,98775.48
2023-04-15T20:37:19.161Z,98779.30
2023-04-15T20:40:25.251Z,98770.66
2023-04-15T20:43:30.735Z,98774.65
2023-04-15T20:46:33.920Z,98774.50
2023-04-15T20:49:38.804Z,98775.69
2023-04-15T20:52:41.616Z,98783.21
2023-04-15T20:55:47.248Z,98784.86
2023-04-15T20:58:51.471Z,98787.65
2023-04-15T21:02:00.325Z,98790.80
2023-04-15T21:05:05.389Z,98792.68
2023-04-15T21:08:11.120Z,98795.80
2023-04-15T21:11:25.664Z,98799.06
2023-04-15T21:14:39.570Z,98802.30
2023-04-15T21:17:42.351Z,98807.23
2023-04-15T21:20:45.220Z,98809.13
2023-04-15T21:23:47.973Z,98814.45
2023-04-15T21:26:50.701Z,98818.39
2023-04-15T21:29:53.473Z,98817.30
2023-04-15T21:32:56.199Z,98820.63
2023-04-15T21:36:01.228Z,98822.52
2023-04-15T21:39:04.933Z,98820.75
2023-04-15T21:42:08.302Z,98821.51
2023-04-15T21:45:11.546Z,98823.33
2023-04-15T21:48:14.318Z,98827.50
2023-04-15T21:51:17.091Z,98831.84
2023-04-15T21:54:19.871Z,98837.30
2023-04-15T21:57:22.611Z,98836.21
2023-04-15T22:00:25.390Z,98836.33
2023-04-15T22:03:33.905Z,98834.52
2023-04-15T22:06:37.120Z,98838.39
2023-04-15T22:09:40.098Z,98838.58
2023-04-15T22:12:42.934Z,98844.59
2023-04-15T22:15:45.671Z,98847.68
2023-04-15T22:18:48.807Z,98851.52
2023-04-15T22:21:51.974Z,98851.73
2023-04-15T22:24:54.794Z,98856.13
2023-04-15T22:27:57.597Z,98853.71
2023-04-15T22:31:00.632Z,98856.29
2023-04-15T22:34:03.450Z,98857.08
2023-04-15T22:37:06.518Z,98860.73
2023-04-15T22:40:09.850Z,98857.27
2023-04-15T22:43:12.599Z,98862.45
2023-04-15T22:46:16.555Z,98867.93
2023-04-15T22:49:19.399Z,98861.76
2023-04-15T22:52:29.899Z,98864.14
2023-04-15T22:55:33.689Z,98865.27
2023-04-15T22:58:36.408Z,98868.67
2023-04-15T23:01:39.374Z,98870.62
2023-04-15T23:04:42.324Z,98871.64
2023-04-15T23:07:45.131Z,98872.95
2023-04-15T23:10:47.897Z,98879.89
2023-04-15T23:13:50.768Z,98878.89
2023-04-15T23:16:54.465Z,98879.45
2023-04-15T23:19:57.174Z,98878.52
2023-04-15T23:22:59.919Z,98880.42
2023-04-15T23:26:04.005Z,98877.18
2023-04-15T23:29:08.256Z,98877.77
2023-04-15T23:32:11.080Z,98882.46
2023-04-15T23:35:13.886Z,98879.23
2023-04-15T23:38:16.724Z,98879.93
2023-04-15T23:41:19.618Z,98881.73
2023-04-15T23:44:22.663Z,98877.21
2023-04-15T23:47:25.504Z,98875.85
2023-04-15T23:50:28.459Z,98877.73
2023-04-15T23:53:31.325Z,98881.77
2023-04-15T23:56:34.129Z,98875.53
2023-04-15T23:59:36.880Z,98878.65
